createdAt,value
2024-02-19T00:04:06.450Z,57.24
2024-02-19T00:09:08.856Z,57.52
2024-02-19T00:14:11.039Z,57.64
2024-02-19T00:19:13.417Z,57.82
2024-02-19T00:24:17.582Z,57.94
2024-02-19T00:29:20.107Z,57.61
2024-02-19T00:34:22.814Z,57.78
2024-02-19T00:39:25.187Z,57.71
2024-02-19T00:44:27.317Z,57.73
2024-02-19T00:49:29.467Z,57.05
2024-02-19T00:54:32.110Z,57.69
2024-02-19T00:59:34.412Z,57.27
2024-02-19T01:04:36.861Z,57.36
2024-02-19T01:09:39.388Z,57.18
2024-02-19T01:14:42.259Z,57.37
2024-02-19T01:19:46.332Z,57.13
2024-02-19T01:24:50.110Z,57.12
2024-02-19T01:29:55.638Z,57.15
2024-02-19T01:34:58.715Z,57.34
2024-02-19T01:40:01.156Z,57.59
2024-02-19T01:45:06.548Z,57.30
2024-02-19T01:50:09.209Z,57.79
2024-02-19T01:55:16.223Z,57.94
2024-02-19T02:05:25.020Z,58.23
2024-02-19T02:10:27.256Z,58.26
2024-02-19T02:15:29.483Z,58.26
2024-02-19T02:20:32.659Z,58.40
2024-02-19T02:25:35.192Z,58.35
2024-02-19T02:30:37.646Z,58.42
2024-02-19T02:35:40.095Z,58.75
2024-02-19T02:40:42.331Z,58.78
2024-02-19T02:45:49.012Z,59.20
2024-02-19T02:50:53.236Z,59.38
2024-02-19T02:55:55.454Z,59.39
2024-02-19T03:00:57.935Z,59.50
2024-02-19T03:06:01.497Z,59.73
2024-02-19T03:11:04.952Z,59.94
2024-02-19T03:16:07.859Z,60.09
2024-02-19T03:21:15.116Z,60.29
2024-02-19T03:26:34.368Z,59.95
2024-02-19T03:31:44.897Z,60.03
2024-02-19T03:36:52.538Z,59.74
2024-02-19T03:41:54.774Z,59.98
2024-02-19T03:46:59.444Z,59.99
2024-02-19T03:52:03.215Z,60.10
2024-02-19T03:57:05.993Z,59.99
2024-02-19T04:02:08.264Z,60.60
2024-02-19T04:07:11.425Z,60.42
2024-02-19T04:12:13.808Z,60.31
2024-02-19T04:17:16.220Z,61.01
2024-02-19T04:22:19.723Z,60.84
2024-02-19T04:27:22.344Z,60.90
2024-02-19T04:32:24.518Z,61.09
2024-02-19T04:37:27.152Z,60.67
2024-02-19T04:42:29.624Z,61.17
2024-02-19T04:47:31.984Z,60.92
2024-02-19T04:52:36.992Z,60.70
2024-02-19T04:57:44.517Z,60.84
2024-02-19T05:02:51.184Z,61.12
2024-02-19T05:07:53.438Z,61.17
2024-02-19T05:12:55.689Z,60.66
2024-02-19T05:17:58.021Z,60.98
2024-02-19T05:23:03.501Z,60.68
2024-02-19T05:28:05.862Z,60.49
2024-02-19T05:33:09.167Z,60.93
2024-02-19T05:38:13.299Z,60.98
2024-02-19T05:43:16.052Z,60.79
2024-02-19T05:48:18.458Z,60.90
2024-02-19T05:53:26.879Z,60.32
2024-02-19T05:58:34.356Z,60.41
2024-02-19T06:03:36.934Z,60.46
2024-02-19T06:08:39.903Z,60.94
2024-02-19T06:13:49.678Z,60.85
2024-02-19T06:18:54.348Z,61.13
2024-02-19T06:23:59.068Z,61.08
2024-02-19T06:29:01.587Z,61.33
2024-02-19T06:34:04.826Z,61.44
2024-02-19T06:39:09.638Z,61.27
2024-02-19T06:44:16.556Z,61.05
2024-02-19T06:49:29.224Z,61.31
2024-02-19T06:54:33.000Z,60.96
2024-02-19T06:59:45.775Z,61.22
2024-02-19T07:04:51.999Z,61.49
2024-02-19T07:09:54.352Z,61.37
2024-02-19T07:14:56.924Z,61.13
2024-02-19T07:20:02.404Z,61.62
2024-02-19T07:25:13.751Z,61.49
2024-02-19T07:30:22.859Z,61.26
2024-02-19T07:35:25.336Z,61.47
2024-02-19T07:40:27.591Z,61.41
2024-02-19T07:45:29.806Z,61.31
2024-02-19T07:50:31.837Z,61.42
2024-02-19T07:55:36.498Z,61.13
2024-02-19T08:00:38.978Z,61.10
2024-02-19T08:05:42.043Z,61.37
2024-02-19T08:10:51.925Z,60.84
2024-02-19T08:15:54.330Z,60.58
2024-02-19T08:20:56.591Z,60.65
2024-02-19T08:26:02.270Z,60.17
2024-02-19T08:31:04.733Z,60.07
2024-02-19T08:36:07.303Z,59.81
2024-02-19T08:41:09.395Z,59.50
2024-02-19T08:46:11.531Z,58.85
2024-02-19T08:51:14.008Z,59.31
2024-02-19T08:56:16.746Z,58.56
2024-02-19T09:01:20.349Z,58.72
2024-02-19T09:06:22.691Z,59.01
2024-02-19T09:11:24.918Z,58.48
2024-02-19T09:16:27.449Z,58.21
2024-02-19T09:21:29.731Z,57.96
2024-02-19T09:26:32.003Z,57.43
2024-02-19T09:31:34.591Z,56.83
2024-02-19T09:36:37.096Z,56.09
2024-02-19T10:34:21.020Z,48.18
2024-02-19T10:39:23.661Z,47.26
2024-02-19T10:44:27.562Z,46.34
2024-02-19T10:49:30.664Z,46.48
2024-02-19T10:54:32.970Z,45.41
2024-02-19T10:59:36.987Z,43.88
2024-02-19T11:04:39.448Z,43.21
2024-02-19T11:09:42.808Z,41.49
2024-02-19T11:14:47.000Z,42.57
2024-02-19T11:19:49.128Z,43.40
2024-02-19T11:24:52.346Z,42.93
2024-02-19T11:30:02.989Z,42.28
2024-02-19T11:35:15.661Z,41.74
2024-02-19T11:40:21.082Z,45.04
2024-02-19T11:45:27.258Z,45.56
2024-02-19T11:50:32.814Z,46.87
2024-02-19T11:55:41.031Z,48.37
2024-02-19T12:00:43.316Z,48.93
2024-02-19T12:05:47.472Z,49.81
2024-02-19T12:10:51.838Z,50.08
2024-02-19T12:15:54.201Z,50.08
2024-02-19T12:20:56.614Z,50.24
2024-02-19T12:25:58.770Z,50.61
2024-02-19T12:31:01.341Z,50.12
2024-02-19T12:36:03.865Z,50.33
2024-02-19T12:41:06.174Z,49.87
2024-02-19T12:46:10.061Z,48.72
2024-02-19T12:51:16.425Z,48.67
2024-02-19T12:56:18.781Z,48.85
2024-02-19T13:01:28.072Z,48.32
2024-02-19T13:06:35.092Z,48.54
2024-02-19T13:11:39.755Z,48.38
2024-02-19T13:16:42.170Z,48.18
2024-02-19T13:21:44.858Z,47.43
2024-02-19T13:31:49.650Z,48.87
2024-02-19T13:36:53.885Z,49.73
2024-02-19T13:41:56.417Z,50.51
2024-02-19T13:47:00.056Z,51.00
2024-02-19T13:52:02.599Z,51.11
2024-02-19T13:57:05.344Z,51.24
2024-02-19T14:02:08.899Z,51.05
2024-02-19T14:07:12.023Z,50.43
2024-02-19T14:12:14.336Z,49.27
2024-02-19T14:17:16.554Z,48.79
2024-02-19T14:22:18.928Z,48.37
2024-02-19T14:27:21.282Z,47.51
2024-02-19T14:32:23.675Z,47.53
2024-02-19T14:37:28.097Z,47.73
2024-02-19T14:42:31.720Z,47.01
2024-02-19T14:47:35.646Z,46.92
2024-02-19T14:52:42.360Z,48.00
2024-02-19T14:57:47.330Z,48.09
2024-02-19T15:02:51.394Z,47.51
2024-02-19T15:07:56.952Z,48.42
2024-02-19T15:13:00.503Z,49.53
2024-02-19T15:18:05.833Z,49.57
2024-02-19T15:23:08.355Z,50.39
2024-02-19T15:28:11.080Z,50.42
2024-02-19T15:33:13.461Z,50.41
2024-02-19T15:38:17.003Z,50.97
2024-02-19T15:43:20.197Z,51.94
2024-02-19T15:48:22.671Z,52.25
2024-02-19T15:53:29.004Z,53.56
2024-02-19T15:58:33.186Z,54.85
2024-02-19T16:03:38.420Z,55.59
2024-02-19T16:08:42.302Z,56.70
2024-02-19T16:13:46.242Z,56.96
2024-02-19T16:18:49.177Z,57.92
2024-02-19T16:23:51.991Z,58.28
2024-02-19T16:28:56.565Z,59.08
2024-02-19T16:34:00.022Z,59.77
2024-02-19T16:39:02.634Z,60.82
2024-02-19T16:44:05.681Z,61.26
2024-02-19T16:49:08.463Z,62.03
2024-02-19T16:54:11.971Z,62.38
2024-02-19T16:59:14.677Z,62.53
2024-02-19T17:04:17.453Z,62.55
2024-02-19T17:09:19.956Z,62.28
2024-02-19T17:14:22.702Z,62.23
2024-02-19T17:19:25.579Z,62.64
2024-02-19T17:24:29.704Z,64.25
2024-02-19T17:29:31.965Z,65.09
2024-02-19T17:34:34.443Z,65.23
2024-02-19T17:39:37.175Z,65.49
2024-02-19T17:44:39.627Z,65.55
2024-02-19T17:49:43.068Z,66.07
2024-02-19T17:54:45.947Z,66.53
2024-02-19T17:59:48.514Z,66.45
2024-02-19T18:04:55.558Z,66.21
2024-02-19T18:09:58.731Z,66.97
2024-02-19T18:15:01.293Z,67.16
2024-02-19T18:20:08.158Z,66.54
2024-02-19T18:25:11.049Z,66.99
2024-02-19T18:30:15.944Z,67.14
2024-02-19T18:35:19.212Z,67.34
2024-02-19T18:40:21.784Z,67.38
2024-02-19T18:45:26.142Z,67.71
2024-02-19T18:50:28.587Z,68.50
2024-02-19T18:55:31.258Z,68.64
2024-02-19T19:00:34.290Z,69.28
2024-02-19T19:05:38.888Z,70.18
2024-02-19T19:10:41.541Z,69.83
2024-02-19T19:15:44.541Z,70.20
2024-02-19T19:20:48.073Z,70.48
2024-02-19T19:25:50.628Z,70.65
2024-02-19T19:30:53.117Z,71.28
2024-02-19T19:35:55.680Z,71.72
2024-02-19T19:41:00.668Z,72.07
2024-02-19T19:46:04.935Z,72.64
2024-02-19T19:54:35.099Z,73.37
2024-02-19T19:59:37.935Z,73.91
2024-02-19T20:04:42.728Z,74.18
2024-02-19T20:13:09.205Z,74.51
2024-02-19T20:18:13.939Z,75.80
2024-02-19T20:23:17.153Z,75.82
2024-02-19T20:28:19.801Z,76.62
2024-02-19T20:33:22.445Z,76.54
2024-02-19T20:38:25.462Z,77.45
2024-02-19T20:43:27.850Z,77.74
2024-02-19T20:48:30.909Z,77.10
2024-02-19T20:53:35.956Z,76.23
2024-02-19T20:58:41.445Z,76.15
2024-02-19T21:03:49.482Z,75.19
2024-02-19T21:13:50.710Z,73.65
2024-02-19T21:19:02.794Z,71.92
2024-02-19T21:24:05.356Z,68.20
2024-02-19T21:32:55.774Z,67.75
2024-02-19T21:37:58.198Z,67.10
2024-02-19T21:43:00.655Z,66.52
2024-02-19T21:48:05.827Z,66.08
2024-02-19T21:53:08.550Z,65.39
2024-02-19T21:58:12.356Z,65.06
2024-02-19T22:03:15.017Z,65.08
2024-02-19T22:08:18.611Z,64.67
2024-02-19T22:13:21.614Z,64.50
2024-02-19T22:18:25.710Z,64.24
2024-02-19T22:23:28.301Z,63.97
2024-02-19T22:28:32.230Z,63.83
2024-02-19T22:33:35.758Z,63.62
2024-02-19T22:38:39.323Z,63.68
2024-02-19T22:43:41.945Z,63.81
2024-02-19T22:48:44.066Z,63.35
2024-02-19T22:53:46.850Z,63.27
2024-02-19T22:58:49.254Z,63.35
2024-02-19T23:04:34.014Z,62.69
2024-02-19T23:10:43.337Z,63.37
2024-02-19T23:16:25.915Z,63.52
2024-02-19T23:22:30.110Z,63.81
2024-02-19T23:28:20.962Z,64.02
2024-02-19T23:33:38.601Z,64.10
2024-02-19T23:38:49.365Z,63.76
2024-02-19T23:43:58.966Z,63.88
2024-02-19T23:49:01.240Z,63.79
2024-02-19T23:54:27.896Z,63.98
2024-02-19T23:59:47.507Z,64.21
